createdAt,value
2023-04-02T00:01:49.906Z,94686.11
2023-04-02T00:04:41.941Z,94689.14
2023-04-02T00:07:38.301Z,94684.02
2023-04-02T00:10:42.655Z,94683.55
2023-04-02T00:13:45.574Z,94688.33
2023-04-02T00:16:38.297Z,94683.97
2023-04-02T00:19:34.099Z,94682.52
2023-04-02T00:22:32.659Z,94685.36
2023-04-02T00:25:32.457Z,94687.02
2023-04-02T00:28:26.548Z,94685.17
2023-04-02T00:31:22.041Z,94684.86
2023-04-02T00:34:37.736Z,94685.85
2023-04-02T00:37:39.093Z,94682.75
2023-04-02T00:40:35.463Z,94682.96
2023-04-02T00:43:53.877Z,94680.23
2023-04-02T00:47:09.898Z,94683.05
2023-04-02T00:50:53.621Z,94683.11
2023-04-02T00:53:54.572Z,94686.64
2023-04-02T01:21:24.230Z,94697.23
2023-04-02T01:24:26.632Z,94701.08
2023-04-02T01:27:40.164Z,94701.59
2023-04-02T01:30:37.587Z,94703.12
2023-04-02T01:33:55.678Z,94708.47
2023-04-02T01:37:09.192Z,94707.81
2023-04-02T01:40:22.541Z,94708.90
2023-04-02T01:43:30.157Z,94708.60
2023-04-02T01:46:50.646Z,94711.26
2023-04-02T01:49:44.557Z,94713.64
2023-04-02T01:52:45.413Z,94715.02
2023-04-02T01:55:39.316Z,94713.84
2023-04-02T01:58:34.139Z,94715.30
2023-04-02T02:02:13.644Z,94716.27
2023-04-02T02:04:43.711Z,94718.35
2023-04-02T02:07:18.838Z,94720.27
2023-04-02T02:09:52.049Z,94723.04
2023-04-02T02:12:21.622Z,94722.33
2023-04-02T02:14:53.147Z,94724.91
2023-04-02T02:17:36.214Z,94727.81
2023-04-02T02:20:12.737Z,94731.61
2023-04-02T02:22:46.501Z,94728.83
2023-04-02T02:25:21.108Z,94730.23
2023-04-02T02:27:59.727Z,94732.35
2023-04-02T02:30:39.285Z,94731.70
2023-04-02T02:33:22.766Z,94735.66
2023-04-02T02:36:28.708Z,94734.73
2023-04-02T02:39:36.768Z,94739.59
2023-04-02T02:42:21.932Z,94738.70
2023-04-02T02:44:56.646Z,94740.73
2023-04-02T02:47:29.862Z,94744.34
2023-04-02T02:50:03.888Z,94745.53
2023-04-02T02:52:37.270Z,94747.10
2023-04-02T02:55:14.098Z,94748.31
2023-04-02T02:57:58.213Z,94750.98
2023-04-02T03:00:29.902Z,94750.94
2023-04-02T03:03:04.614Z,94751.77
2023-04-02T03:05:36.403Z,94753.02
2023-04-02T03:08:38.986Z,94752.36
2023-04-02T03:11:30.806Z,94753.42
2023-04-02T03:14:14.732Z,94751.40
2023-04-02T03:16:49.319Z,94755.27
2023-04-02T03:19:33.940Z,94759.78
2023-04-02T03:22:12.717Z,94760.80
2023-04-02T03:25:07.281Z,94765.73
2023-04-02T03:27:42.253Z,94764.23
2023-04-02T03:30:28.738Z,94767.49
2023-04-02T03:33:25.458Z,94771.45
2023-04-02T03:36:13.975Z,94774.80
2023-04-02T03:38:47.796Z,94777.39
2023-04-02T03:41:24.864Z,94781.59
2023-04-02T03:44:00.429Z,94783.39
2023-04-02T03:46:40.109Z,94785.29
2023-04-02T03:49:19.471Z,94784.34
2023-04-02T03:52:15.882Z,94787.79
2023-04-02T03:55:04.752Z,94790.73
2023-04-02T03:57:44.181Z,94794.15
2023-04-02T04:00:15.131Z,94797.27
2023-04-02T04:02:50.426Z,94793.77
2023-04-02T04:05:27.167Z,94796.41
2023-04-02T04:08:05.234Z,94800.84
2023-04-02T04:10:35.650Z,94800.66
2023-04-02T04:13:32.333Z,94802.50
2023-04-02T04:16:07.495Z,94801.05
2023-04-02T04:19:18.690Z,94805.59
2023-04-02T04:21:48.571Z,94803.35
2023-04-02T04:24:26.495Z,94808.69
2023-04-02T04:27:33.982Z,94814.02
2023-04-02T04:30:18.541Z,94814.02
2023-04-02T04:33:04.831Z,94816.96
2023-04-02T04:35:36.967Z,94814.05
2023-04-02T04:51:54.643Z,94829.25
2023-04-02T04:54:28.420Z,94834.30
2023-04-02T04:57:03.307Z,94836.20
2023-04-02T04:59:41.705Z,94840.58
2023-04-02T05:02:21.158Z,94842.84
2023-04-02T05:05:00.010Z,94847.18
2023-04-02T05:07:44.223Z,94850.79
2023-04-02T05:10:36.322Z,94849.70
2023-04-02T05:13:12.652Z,94851.55
2023-04-02T05:16:01.186Z,94852.99
2023-04-02T05:18:51.375Z,94855.74
2023-04-02T05:21:52.250Z,94858.21
2023-04-02T05:24:34.816Z,94860.31
2023-04-02T05:27:24.940Z,94861.72
2023-04-02T05:35:16.544Z,94870.03
2023-04-02T05:38:46.473Z,94870.20
2023-04-02T05:42:37.224Z,94872.15
2023-04-02T05:45:41.363Z,94869.93
2023-04-02T05:48:17.852Z,94875.29
2023-04-02T05:50:51.609Z,94876.00
2023-04-02T05:53:36.702Z,94876.98
2023-04-02T05:56:22.515Z,94875.52
2023-04-02T05:59:21.794Z,94878.90
2023-04-02T06:02:00.600Z,94881.66
2023-04-02T06:04:49.245Z,94886.91
2023-04-02T06:07:28.768Z,94891.23
2023-04-02T06:10:01.398Z,94890.94
2023-04-02T06:12:44.404Z,94898.47
2023-04-02T06:15:19.233Z,94897.25
2023-04-02T06:17:51.792Z,94898.58
2023-04-02T06:20:21.343Z,94898.15
2023-04-02T06:23:00.010Z,94898.35
2023-04-02T06:25:34.203Z,94896.96
2023-04-02T06:28:07.408Z,94902.13
2023-04-02T06:30:40.750Z,94905.10
2023-04-02T06:33:16.702Z,94903.20
2023-04-02T06:35:51.514Z,94908.31
2023-04-02T06:38:34.526Z,94910.89
2023-04-02T06:41:21.750Z,94909.39
2023-04-02T06:44:44.527Z,94911.30
2023-04-02T06:47:54.503Z,94912.02
2023-04-02T06:50:33.479Z,94911.13
2023-04-02T06:53:28.995Z,94913.98
2023-04-02T06:56:25.610Z,94913.78
2023-04-02T06:58:55.282Z,94911.09
2023-04-02T07:01:29.830Z,94915.63
2023-04-02T07:04:00.629Z,94916.20
2023-04-02T07:06:50.180Z,94916.59
2023-04-02T07:09:21.632Z,94919.79
2023-04-02T07:11:55.882Z,94922.33
2023-04-02T07:14:49.327Z,94924.33
2023-04-02T07:17:21.019Z,94926.06
2023-04-02T07:20:04.007Z,94931.23
2023-04-02T07:22:58.443Z,94932.59
2023-04-02T07:25:51.329Z,94935.79
2023-04-02T07:28:23.226Z,94939.58
2023-04-02T07:30:56.261Z,94944.42
2023-04-02T07:33:32.424Z,94946.34
2023-04-02T07:36:05.023Z,94947.71
2023-04-02T07:38:38.937Z,94951.27
2023-04-02T07:41:11.848Z,94953.48
2023-04-02T07:43:41.145Z,94956.06
2023-04-02T07:46:10.928Z,94954.02
2023-04-02T07:48:40.485Z,94952.51
2023-04-02T07:51:23.724Z,94955.27
2023-04-02T07:53:56.173Z,94956.84
2023-04-02T07:56:25.408Z,94956.89
2023-04-02T07:58:53.429Z,94960.63
2023-04-02T08:01:25.953Z,94961.24
2023-04-02T08:03:57.949Z,94956.95
2023-04-02T08:06:26.041Z,94956.88
2023-04-02T08:08:54.296Z,94959.55
2023-04-02T08:11:22.426Z,94961.63
2023-04-02T08:13:50.684Z,94963.13
2023-04-02T08:16:18.726Z,94962.73
2023-04-02T08:18:47.773Z,94959.77
2023-04-02T08:21:16.607Z,94961.23
2023-04-02T08:23:45.301Z,94961.69
2023-04-02T08:26:19.247Z,94965.67
2023-04-02T08:28:50.939Z,94965.54
2023-04-02T08:31:20.970Z,94967.15
2023-04-02T08:33:49.647Z,94973.83
2023-04-02T08:36:19.454Z,94976.80
2023-04-02T08:38:48.048Z,94980.74
2023-04-02T08:41:25.157Z,94980.75
2023-04-02T08:44:11.963Z,94983.98
2023-04-02T08:46:49.540Z,94983.77
2023-04-02T08:49:58.269Z,94988.26
2023-04-02T08:52:33.353Z,94985.71
2023-04-02T08:55:02.801Z,94984.01
2023-04-02T08:57:37.092Z,94990.02
2023-04-02T09:00:34.152Z,94990.73
2023-04-02T09:03:11.056Z,94993.67
2023-04-02T09:05:42.861Z,94996.31
2023-04-02T09:08:26.349Z,94995.73
2023-04-02T09:11:09.747Z,94999.76
2023-04-02T09:13:46.618Z,94998.33
2023-04-02T09:16:17.968Z,94997.89
2023-04-02T09:18:48.092Z,94999.66
2023-04-02T09:21:22.448Z,94999.53
2023-04-02T09:23:50.672Z,94997.90
2023-04-02T09:26:25.467Z,95000.59
2023-04-02T09:29:02.251Z,95002.72
2023-04-02T09:31:42.665Z,95006.16
2023-04-02T09:34:31.014Z,95009.42
2023-04-02T09:37:29.547Z,95009.99
2023-04-02T09:40:17.059Z,95012.17
2023-04-02T09:42:45.713Z,95009.67
2023-04-02T09:45:20.351Z,95007.91
2023-04-02T09:47:50.036Z,95010.27
2023-04-02T09:50:21.084Z,95005.23
2023-04-02T09:52:50.594Z,95006.48
2023-04-02T09:55:27.484Z,95007.23
2023-04-02T09:58:13.494Z,95009.16
2023-04-02T10:00:51.314Z,95012.36
2023-04-02T10:03:25.345Z,95009.81
2023-04-02T10:06:16.438Z,95009.16
2023-04-02T10:08:46.210Z,95010.79
2023-04-02T10:11:36.566Z,95008.13
2023-04-02T10:14:26.311Z,95012.39
2023-04-02T10:16:58.673Z,95013.66
2023-04-02T10:19:26.654Z,95012.15
2023-04-02T10:21:56.629Z,95010.77
2023-04-02T10:24:28.298Z,95008.70
2023-04-02T10:27:09.967Z,95009.20
2023-04-02T10:30:05.559Z,95008.54
2023-04-02T10:32:57.589Z,95014.30
2023-04-02T10:35:35.441Z,95009.73
2023-04-02T10:38:24.758Z,95014.30
2023-04-02T10:41:04.581Z,95011.83
2023-04-02T10:44:09.121Z,95010.52
2023-04-02T10:47:13.009Z,95012.18
2023-04-02T10:50:15.812Z,95013.55
2023-04-02T10:53:03.298Z,95014.33
2023-04-02T10:55:39.899Z,95020.38
2023-04-02T10:58:14.153Z,95015.40
2023-04-02T11:00:46.895Z,95019.16
2023-04-02T11:03:24.207Z,95017.05
2023-04-02T11:05:57.922Z,95020.30
2023-04-02T11:08:26.064Z,95021.70
2023-04-02T11:11:07.994Z,95018.76
2023-04-02T11:13:50.858Z,95018.12
2023-04-02T11:16:19.097Z,95024.05
2023-04-02T11:19:32.928Z,95024.66
2023-04-02T11:22:25.687Z,95025.96
2023-04-02T11:24:57.290Z,95021.80
2023-04-02T11:27:27.779Z,95021.36
2023-04-02T11:30:08.535Z,95029.70
2023-04-02T11:32:43.103Z,95028.65
2023-04-02T11:35:33.262Z,95029.23
2023-04-02T11:38:23.992Z,95029.02
2023-04-02T11:40:54.973Z,95031.89
2023-04-02T11:43:38.266Z,95032.52
2023-04-02T11:46:42.197Z,95035.96
2023-04-02T11:49:40.300Z,95038.27
2023-04-02T11:52:42.852Z,95041.25
2023-04-02T11:55:30.837Z,95044.22
2023-04-02T11:58:07.024Z,95043.80
2023-04-02T12:01:14.793Z,95040.14
2023-04-02T12:03:53.929Z,95040.05
2023-04-02T12:06:28.631Z,95044.55
2023-04-02T12:09:14.809Z,95047.48
2023-04-02T12:11:48.121Z,95048.85
2023-04-02T12:14:38.417Z,95045.55
2023-04-02T12:17:35.815Z,95045.56
2023-04-02T12:20:27.510Z,95044.57
2023-04-02T12:22:57.487Z,95046.55
2023-04-02T12:25:40.047Z,95047.94
2023-04-02T12:28:11.903Z,95043.71
2023-04-02T12:30:41.791Z,95043.21
2023-04-02T12:33:37.593Z,95044.67
2023-04-02T12:36:16.662Z,95046.77
2023-04-02T12:38:55.154Z,95043.90
2023-04-02T12:41:31.063Z,95048.81
2023-04-02T12:44:04.450Z,95046.84
2023-04-02T12:46:35.675Z,95041.46
2023-04-02T12:49:24.781Z,95045.55
2023-04-02T12:51:54.580Z,95041.80
2023-04-02T12:54:23.140Z,95041.41
2023-04-02T12:56:51.647Z,95038.42
2023-04-02T12:59:22.793Z,95039.55
2023-04-02T13:02:02.644Z,95040.25
2023-04-02T13:04:31.492Z,95043.02
2023-04-02T13:06:59.865Z,95044.52
2023-04-02T13:09:46.775Z,95040.52
2023-04-02T13:12:35.132Z,95040.66
2023-04-02T13:15:08.156Z,95045.75
2023-04-02T13:17:41.524Z,95047.72
2023-04-02T13:20:36.346Z,95050.62
2023-04-02T13:23:29.931Z,95048.58
2023-04-02T13:26:22.110Z,95051.15
2023-04-02T13:28:59.631Z,95047.85
2023-04-02T13:31:32.698Z,95048.34
2023-04-02T13:34:03.747Z,95049.48
2023-04-02T13:36:32.537Z,95052.67
2023-04-02T13:39:01.463Z,95050.56
2023-04-02T13:41:32.474Z,95051.45
2023-04-02T13:44:02.798Z,95050.20
2023-04-02T13:46:33.652Z,95049.73
2023-04-02T13:49:02.569Z,95053.55
2023-04-02T13:51:31.932Z,95054.28
2023-04-02T13:54:00.681Z,95050.86
2023-04-02T13:56:29.851Z,95050.56
2023-04-02T13:58:58.952Z,95054.71
2023-04-02T14:01:28.070Z,95054.89
2023-04-02T14:03:58.155Z,95054.34
2023-04-02T14:06:37.454Z,95054.11
2023-04-02T14:09:25.078Z,95055.23
2023-04-02T14:12:10.078Z,95057.59
2023-04-02T14:15:09.065Z,95056.45
2023-04-02T14:18:08.412Z,95056.39
2023-04-02T14:21:02.986Z,95062.06
2023-04-02T14:24:06.506Z,95060.10
2023-04-02T14:26:39.797Z,95060.02
2023-04-02T14:29:30.081Z,95062.08
2023-04-02T14:32:37.912Z,95063.76
2023-04-02T14:35:46.862Z,95059.13
2023-04-02T14:38:16.847Z,95057.54
2023-04-02T14:40:50.417Z,95059.17
2023-04-02T14:43:33.103Z,95061.09
2023-04-02T14:46:10.511Z,95060.98
2023-04-02T14:49:07.272Z,95056.64
2023-04-02T14:51:49.906Z,95057.56
2023-04-02T14:54:40.044Z,95058.25
2023-04-02T14:57:25.154Z,95062.72
2023-04-02T15:00:31.776Z,95058.52
2023-04-02T15:03:17.024Z,95060.35
2023-04-02T15:06:10.860Z,95062.66
2023-04-02T15:09:08.400Z,95064.54
2023-04-02T15:12:03.780Z,95062.78
2023-04-02T15:14:35.574Z,95062.79
2023-04-02T15:17:03.917Z,95066.77
2023-04-02T15:19:32.202Z,95070.67
2023-04-02T15:22:48.147Z,95068.03
2023-04-02T15:25:33.993Z,95069.20
2023-04-02T15:28:09.901Z,95071.45
2023-04-02T15:30:42.429Z,95071.71
2023-04-02T15:33:29.585Z,95072.48
2023-04-02T15:36:09.680Z,95073.64
2023-04-02T15:38:58.018Z,95078.84
2023-04-02T15:41:27.850Z,95082.27
2023-04-02T15:44:13.953Z,95082.58
2023-04-02T15:47:07.212Z,95081.58
2023-04-02T15:49:46.947Z,95085.30
2023-04-02T15:52:54.747Z,95089.92
2023-04-02T15:55:33.526Z,95097.67
2023-04-02T15:58:17.367Z,95101.58
2023-04-02T16:01:11.881Z,95104.37
2023-04-02T16:04:05.864Z,95108.95
2023-04-02T16:06:37.139Z,95113.45
2023-04-02T16:09:24.007Z,95114.10
2023-04-02T16:11:59.820Z,95119.37
2023-04-02T16:14:31.574Z,95122.05
2023-04-02T16:17:17.641Z,95122.44
2023-04-02T16:20:00.180Z,95124.41
2023-04-02T16:22:30.845Z,95126.55
2023-04-02T16:25:14.892Z,95128.27
2023-04-02T16:28:08.037Z,95126.60
2023-04-02T16:31:14.414Z,95127.85
2023-04-02T16:34:24.280Z,95134.80
2023-04-02T16:37:02.332Z,95139.60
2023-04-02T16:39:57.096Z,95144.39
2023-04-02T16:42:31.405Z,95145.27
2023-04-02T16:45:14.828Z,95147.92
2023-04-02T16:47:50.401Z,95153.16
2023-04-02T16:50:57.050Z,95152.91
2023-04-02T16:53:58.425Z,95155.47
2023-04-02T16:56:46.409Z,95155.14
2023-04-02T16:59:44.335Z,95161.94
2023-04-02T17:02:46.529Z,95169.42
2023-04-02T17:05:29.958Z,95167.98
2023-04-02T17:08:17.331Z,95166.39
2023-04-02T17:11:06.828Z,95168.70
2023-04-02T17:13:42.958Z,95172.08
2023-04-02T17:16:12.603Z,95177.89
2023-04-02T17:18:44.341Z,95183.02
2023-04-02T17:21:24.451Z,95188.60
2023-04-02T17:24:03.065Z,95190.81
2023-04-02T17:34:52.972Z,95199.31
2023-04-02T17:37:34.863Z,95203.16
2023-04-02T17:40:32.021Z,95208.27
2023-04-02T17:43:15.414Z,95214.05
2023-04-02T17:45:56.490Z,95215.02
2023-04-02T17:48:47.777Z,95220.05
2023-04-02T17:51:30.521Z,95221.23
2023-04-02T17:54:20.194Z,95220.86
2023-04-02T17:56:56.953Z,95220.08
2023-04-02T17:59:46.931Z,95225.08
2023-04-02T18:02:44.369Z,95226.77
2023-04-02T18:05:21.561Z,95232.06
2023-04-02T18:08:33.257Z,95233.17
2023-04-02T18:11:34.812Z,95236.61
2023-04-02T18:15:04.855Z,95239.70
2023-04-02T18:18:02.901Z,95244.52
2023-04-02T18:21:12.637Z,95248.10
2023-04-02T18:23:58.017Z,95250.06
2023-04-02T18:26:34.588Z,95256.08
2023-04-02T18:29:19.040Z,95259.99
2023-04-02T18:32:26.216Z,95258.86
2023-04-02T18:35:25.678Z,95259.18
2023-04-02T18:38:11.924Z,95257.73
2023-04-02T18:40:52.075Z,95254.80
2023-04-02T18:43:34.031Z,95257.72
2023-04-02T18:46:30.667Z,95256.41
2023-04-02T18:49:26.686Z,95255.79
2023-04-02T18:52:04.481Z,95257.35
2023-04-02T18:54:43.263Z,95261.69
2023-04-02T18:57:18.385Z,95264.06
2023-04-02T18:59:57.812Z,95262.71
2023-04-02T19:02:35.461Z,95263.15
2023-04-02T19:05:14.941Z,95262.52
2023-04-02T19:07:46.785Z,95263.19
2023-04-02T19:10:42.171Z,95264.62
2023-04-02T19:13:16.659Z,95266.41
2023-04-02T19:15:58.486Z,95269.16
2023-04-02T19:18:39.527Z,95268.27
2023-04-02T19:21:53.214Z,95267.63
2023-04-02T19:24:33.344Z,95268.58
2023-04-02T19:27:13.402Z,95269.98
2023-04-02T19:30:11.723Z,95272.63
2023-04-02T19:33:07.681Z,95273.77
2023-04-02T19:35:42.450Z,95276.88
2023-04-02T19:38:41.625Z,95279.46
2023-04-02T19:41:23.042Z,95285.17
2023-04-02T19:44:13.229Z,95287.79
2023-04-02T19:46:54.225Z,95285.98
2023-04-02T19:49:36.705Z,95287.84
2023-04-02T19:52:05.541Z,95286.42
2023-04-02T19:54:36.461Z,95288.60
2023-04-02T19:57:07.813Z,95287.79
2023-04-02T19:59:36.167Z,95290.69
2023-04-02T20:02:08.747Z,95296.06
2023-04-02T20:04:38.373Z,95304.14
2023-04-02T20:07:06.653Z,95310.65
2023-04-02T20:09:35.673Z,95314.68
2023-04-02T20:12:04.117Z,95314.82
2023-04-02T20:14:32.286Z,95316.89
2023-04-02T20:17:00.658Z,95316.74
2023-04-02T20:19:29.065Z,95317.89
2023-04-02T20:21:57.374Z,95321.70
2023-04-02T20:24:25.854Z,95320.70
2023-04-02T20:26:54.556Z,95317.08
2023-04-02T20:29:24.705Z,95315.14
2023-04-02T20:31:53.113Z,95316.33
2023-04-02T20:34:21.399Z,95319.25
2023-04-02T20:36:50.839Z,95317.19
2023-04-02T20:39:20.970Z,95312.39
2023-04-02T20:41:49.128Z,95311.54
2023-04-02T20:44:17.504Z,95314.73
2023-04-02T20:46:45.644Z,95315.73
2023-04-02T20:49:13.821Z,95311.71
2023-04-02T20:51:42.032Z,95315.58
2023-04-02T20:54:10.701Z,95311.34
2023-04-02T20:56:38.831Z,95312.58
2023-04-02T20:59:06.788Z,95307.04
2023-04-02T21:01:34.838Z,95309.95
2023-04-02T21:04:04.095Z,95311.24
2023-04-02T21:06:36.251Z,95311.94
2023-04-02T21:09:08.546Z,95310.21
2023-04-02T21:11:38.134Z,95313.39
2023-04-02T21:14:06.430Z,95314.69
2023-04-02T21:16:34.721Z,95317.75
2023-04-02T21:19:07.922Z,95317.19
2023-04-02T21:21:39.008Z,95317.98
2023-04-02T21:24:10.103Z,95315.28
2023-04-02T21:26:41.140Z,95313.31
2023-04-02T21:29:12.248Z,95311.77
2023-04-02T21:31:40.933Z,95311.45
2023-04-02T21:34:14.012Z,95311.86
2023-04-02T21:36:47.431Z,95314.12
2023-04-02T21:39:23.751Z,95314.13
2023-04-02T21:41:53.341Z,95314.48
2023-04-02T21:44:23.215Z,95314.63
2023-04-02T21:46:53.680Z,95318.68
2023-04-02T21:49:23.556Z,95318.35
2023-04-02T21:51:52.538Z,95320.17
2023-04-02T21:54:21.015Z,95320.02
2023-04-02T21:56:49.203Z,95322.11
2023-04-02T21:59:18.373Z,95322.44
2023-04-02T22:01:49.137Z,95321.68
2023-04-02T22:04:23.030Z,95321.27
2023-04-02T22:06:52.373Z,95325.84
2023-04-02T22:09:23.607Z,95326.06
2023-04-02T22:11:55.631Z,95324.26
2023-04-02T22:14:24.506Z,95327.21
2023-04-02T22:16:52.688Z,95329.63
2023-04-02T22:19:21.061Z,95332.80
2023-04-02T22:21:49.386Z,95329.54
2023-04-02T22:24:25.229Z,95331.56
2023-04-02T22:26:54.150Z,95331.66
2023-04-02T22:29:22.452Z,95329.10
2023-04-02T22:31:52.177Z,95332.33
2023-04-02T22:34:21.112Z,95332.59
2023-04-02T22:36:49.258Z,95333.61
2023-04-02T22:39:17.437Z,95338.78
2023-04-02T22:41:46.482Z,95337.48
2023-04-02T22:44:16.009Z,95339.59
2023-04-02T22:46:44.131Z,95337.77
2023-04-02T22:49:12.615Z,95337.18
2023-04-02T22:51:40.961Z,95335.64
2023-04-02T22:54:08.972Z,95337.18
2023-04-02T22:56:37.668Z,95336.40
2023-04-02T22:59:06.101Z,95338.20
2023-04-02T23:01:36.100Z,95339.88
2023-04-02T23:04:05.226Z,95344.40
2023-04-02T23:06:33.930Z,95348.42
2023-04-02T23:09:02.248Z,95348.29
2023-04-02T23:11:30.484Z,95353.35
2023-04-02T23:13:59.108Z,95354.11
2023-04-02T23:16:29.329Z,95353.96
2023-04-02T23:18:57.923Z,95354.80
2023-04-02T23:21:26.767Z,95355.26
2023-04-02T23:23:55.080Z,95353.14
2023-04-02T23:26:31.601Z,95356.28
2023-04-02T23:29:00.743Z,95352.88
2023-04-02T23:31:29.033Z,95354.09
2023-04-02T23:33:57.246Z,95351.71
2023-04-02T23:36:27.019Z,95351.79
2023-04-02T23:38:59.727Z,95356.63
2023-04-02T23:41:29.975Z,95357.20
2023-04-02T23:43:58.607Z,95360.02
2023-04-02T23:46:27.835Z,95365.56
2023-04-02T23:48:56.832Z,95367.13
2023-04-02T23:51:26.884Z,95369.79
2023-04-02T23:53:56.432Z,95368.89
2023-04-02T23:56:24.971Z,95369.50
2023-04-02T23:58:53.527Z,95369.20
